CST,Max TemperatureF,Mean TemperatureF,Min TemperatureF,Max Dew PointF,MeanDew PointF,Min DewpointF,Max Humidity, Mean Humidity, Min Humidity, Max Sea Level PressureIn, Mean Sea Level PressureIn, Min Sea Level PressureIn, Max VisibilityMiles, Mean VisibilityMiles, Min VisibilityMiles, Max Wind SpeedMPH, Mean Wind SpeedMPH, Max Gust SpeedMPH,PrecipitationIn, CloudCover, Events, WindDirDegrees
2012-12-1,46,37,28,34,32,28,100,84,57,29.88,29.75,29.65,10,6,2,15,9,17,0.00,2,,291
2012-12-2,59,40,21,41,31,21,100,75,42,29.90,29.72,29.41,10,6,0,25,6,31,0.00,2,,163
2012-12-3,55,44,32,43,31,21,93,58,41,29.98,29.64,29.36,10,10,5,26,19,33,0.00,0,,263
2012-12-4,30,22,15,21,12,9,80,66,47,30.34,30.23,29.99,10,10,10,15,8,17,0.00,0,,357
2012-12-5,35,26,17,27,19,12,80,68,56,30.30,29.92,29.66,10,10,10,23,12,32,0.00,0,,129
2012-12-6,41,30,19,30,23,18,93,74,52,30.01,29.92,29.69,10,10,9,26,11,30,0.00,0,,286
2012-12-7,23,21,19,21,20,18,100,92,86,30.05,30.02,29.98,10,6,1,14,6,,0.00,5,,45
2012-12-8,32,24,17,30,24,14,100,92,80,30.01,29.92,29.87,10,6,1,24,10,29,0.00,8,,117
2012-12-9,19,10,0,18,3,-8,93,75,62,30.25,30.14,29.97,10,5,0,36,24,45,0.00,4,,353
2012-12-10,15,5,-5,9,-1,-13,85,78,68,30.14,29.88,29.75,10,9,2,18,10,20,0.00,2,,219
2012-12-11,17,11,5,12,7,0,93,81,68,29.87,29.82,29.75,10,9,3,20,6,,0.00,3,,273
2012-12-12,32,22,12,27,16,9,93,83,69,29.91,29.77,29.67,10,7,3,20,13,25,0.00,3,,91
2012-12-13,17,14,12,14,10,9,93,84,73,30.11,30.04,29.91,10,9,4,17,11,21,0.00,7,,18
2012-12-14,23,16,10,21,15,7,93,90,80,30.03,29.87,29.68,8,5,0,13,5,,0.00,2,,109
2012-12-15,28,22,17,27,21,14,100,87,74,29.75,29.67,29.62,10,6,3,17,10,,0.00,1,,345
2012-12-16,24,22,21,23,22,19,100,96,93,29.84,29.81,29.75,10,10,3,17,11,24,0.00,8,,4
2012-12-17,24,22,19,25,21,19,100,97,93,29.81,29.69,29.59,8,3,0,10,3,,0.00,8,,118
2012-12-18,32,24,15,32,26,14,100,99,93,29.74,29.63,29.57,10,4,0,12,5,,0.00,7,,163
2012-12-19,23,18,12,19,15,10,100,86,74,30.06,29.91,29.74,10,10,9,17,11,,0.00,3,,262
2012-12-20,17,6,-5,12,5,-11,92,83,73,30.21,30.14,30.07,10,9,2,16,10,,0.00,3,,323
2012-12-21,12,4,-5,10,0,-13,92,83,71,30.26,30.18,30.04,10,8,0,9,3,,0.00,2,,144
2012-12-22,17,11,5,12,7,1,93,81,73,30.17,30.08,29.99,10,10,5,21,9,23,0.00,3,,360
2012-12-23,10,6,3,7,2,0,85,82,78,30.17,30.13,30.08,10,9,3,18,14,,0.00,3,,21
2012-12-24,5,0,-5,1,-7,-13,85,72,66,30.38,30.25,30.11,10,9,2,17,13,,0.00,2,,346
2012-12-25,8,0,-7,3,-7,-15,79,72,65,30.50,30.45,30.37,10,9,3,12,8,,0.00,1,,267
2012-12-26,12,5,-2,5,2,-8,85,79,72,30.36,30.26,30.20,10,8,3,8,5,,0.00,5,,112
2012-12-27,15,10,5,10,7,1,92,84,73,30.20,30.14,30.10,10,6,1,13,8,,0.00,7,,110
2012-12-28,17,11,3,14,8,0,93,87,79,30.11,30.07,30.03,10,7,2,15,3,,0.00,6,,248
2012-12-29,8,2,-5,5,-3,-13,85,79,71,30.08,30.06,30.02,10,9,7,15,8,,0.00,1,,234
2012-12-30,24,14,3,19,13,0,93,81,68,30.09,29.98,29.86,10,10,10,21,10,24,0.00,3,,271
2012-12-31,19,7,-5,16,0,-13,86,76,67,30.27,30.21,30.10,10,10,5,12,7,,0.00,5,,85